createdAt,value
2023-03-11T00:00:22.024Z,3.00
2023-03-11T00:01:22.003Z,3.40
2023-03-11T00:02:22.071Z,3.40
2023-03-11T00:03:21.994Z,2.90
2023-03-11T00:04:21.980Z,3.30
2023-03-11T00:05:22.026Z,3.60
2023-03-11T00:06:21.960Z,3.30
2023-03-11T00:07:21.949Z,3.20
2023-03-11T00:08:21.948Z,3.30
2023-03-11T00:09:21.932Z,3.50
2023-03-11T00:10:21.936Z,3.40
2023-03-11T00:11:21.917Z,3.70
2023-03-11T00:12:21.908Z,3.00
2023-03-11T00:13:21.900Z,3.00
2023-03-11T00:14:21.893Z,3.40
2023-03-11T00:15:21.898Z,3.10
2023-03-11T00:16:21.904Z,3.00
2023-03-11T00:17:21.873Z,3.20
2023-03-11T00:18:21.857Z,3.20
2023-03-11T00:19:21.847Z,2.80
2023-03-11T00:20:21.847Z,2.90
2023-03-11T00:21:21.833Z,2.90
2023-03-11T00:22:21.834Z,3.10
2023-03-11T00:23:21.813Z,3.50
2023-03-11T00:24:21.811Z,3.00
2023-03-11T00:25:21.815Z,3.00
2023-03-11T00:26:21.792Z,3.20
2023-03-11T00:27:21.790Z,3.10
2023-03-11T00:28:21.771Z,2.90
2023-03-11T00:29:21.761Z,3.10
2023-03-11T00:30:21.770Z,3.00
2023-03-11T00:31:21.805Z,3.00
2023-03-11T00:32:21.798Z,2.80
2023-03-11T00:33:21.731Z,2.50
2023-03-11T00:34:21.730Z,3.00
2023-03-11T00:35:21.728Z,3.20
2023-03-11T00:36:21.699Z,3.10
2023-03-11T00:37:21.698Z,3.00
2023-03-11T00:38:22.708Z,3.00
2023-03-11T00:39:21.668Z,2.70
2023-03-11T00:40:21.671Z,2.90
2023-03-11T00:41:21.656Z,2.80
2023-03-11T00:42:21.644Z,3.10
2023-03-11T00:43:21.642Z,3.20
2023-03-11T00:44:21.631Z,2.90
2023-03-11T00:45:21.628Z,2.80
2023-03-11T00:46:21.655Z,3.00
2023-03-11T00:47:21.602Z,2.90
2023-03-11T00:48:21.593Z,3.00
2023-03-11T00:49:21.571Z,2.50
2023-03-11T00:50:22.579Z,3.10
2023-03-11T00:51:21.561Z,2.60
2023-03-11T00:52:21.553Z,3.00
2023-03-11T00:53:21.545Z,3.00
2023-03-11T00:54:21.545Z,2.90
2023-03-11T00:55:21.531Z,2.90
2023-03-11T00:56:21.529Z,3.00
2023-03-11T00:57:21.535Z,3.00
2023-03-11T00:58:21.510Z,3.20
2023-03-11T00:59:21.487Z,3.20
2023-03-11T01:00:21.490Z,3.20
2023-03-11T01:01:21.527Z,3.00
2023-03-11T01:02:21.466Z,3.10
2023-03-11T01:03:21.461Z,2.90
2023-03-11T01:04:21.536Z,2.80
2023-03-11T01:05:21.430Z,2.80
2023-03-11T01:06:21.438Z,3.10
2023-03-11T01:07:21.417Z,2.90
2023-03-11T01:08:21.408Z,3.30
2023-03-11T01:09:21.408Z,3.00
2023-03-11T01:10:21.407Z,2.80
2023-03-11T01:11:21.403Z,2.80
2023-03-11T01:12:21.373Z,2.70
2023-03-11T01:13:21.366Z,2.60
2023-03-11T01:14:21.379Z,2.80
2023-03-11T01:15:21.356Z,2.60
2023-03-11T01:16:21.508Z,2.80
2023-03-11T01:17:21.329Z,2.90
2023-03-11T01:18:21.321Z,2.70
2023-03-11T01:19:21.310Z,3.00
2023-03-11T01:20:21.302Z,2.70
2023-03-11T01:21:21.309Z,2.50
2023-03-11T01:22:21.291Z,2.80
2023-03-11T01:23:21.281Z,2.40
2023-03-11T01:24:21.269Z,2.40
2023-03-11T01:25:21.266Z,2.90
2023-03-11T01:26:21.260Z,2.70
2023-03-11T01:27:21.239Z,2.80
2023-03-11T01:28:21.230Z,2.70
2023-03-11T01:29:21.224Z,3.10
2023-03-11T01:30:21.212Z,2.40
2023-03-11T01:31:21.232Z,2.80
2023-03-11T01:32:21.234Z,2.90
2023-03-11T01:33:21.200Z,2.80
2023-03-11T01:34:21.179Z,2.70
2023-03-11T01:35:21.192Z,2.70
2023-03-11T01:36:21.189Z,3.10
2023-03-11T01:37:21.163Z,3.00
2023-03-11T01:38:21.140Z,2.70
2023-03-11T01:39:21.130Z,2.70
2023-03-11T01:40:21.137Z,2.70
2023-03-11T01:41:21.138Z,2.70
2023-03-11T01:42:21.118Z,2.90
2023-03-11T01:43:21.096Z,3.00
2023-03-11T01:44:21.088Z,2.60
2023-03-11T01:45:21.092Z,3.00
2023-03-11T01:46:21.127Z,3.20
2023-03-11T01:47:21.064Z,2.80
2023-03-11T01:48:21.048Z,2.90
2023-03-11T01:49:22.048Z,2.60
2023-03-11T01:50:21.039Z,3.10
2023-03-11T01:51:21.034Z,3.10
2023-03-11T01:52:21.020Z,2.60
2023-03-11T01:53:21.003Z,3.00
2023-03-11T01:54:21.020Z,2.80
2023-03-11T01:55:20.986Z,2.60
2023-03-11T01:56:21.008Z,2.60
2023-03-11T01:57:20.966Z,2.80
2023-03-11T01:58:20.963Z,2.70
2023-03-11T01:59:20.946Z,3.10
2023-03-11T02:00:20.945Z,2.50
2023-03-11T02:01:20.973Z,2.90
2023-03-11T02:02:20.925Z,3.10
2023-03-11T02:03:20.975Z,2.70
2023-03-11T02:04:20.900Z,2.30
2023-03-11T02:05:20.902Z,2.90
2023-03-11T02:06:20.899Z,2.90
2023-03-11T02:07:20.876Z,3.10
2023-03-11T02:08:20.868Z,3.00
2023-03-11T02:09:20.856Z,2.70
2023-03-11T02:10:20.848Z,2.70
2023-03-11T02:11:20.861Z,3.10
2023-03-11T02:12:20.833Z,2.80
2023-03-11T02:13:20.827Z,3.30
2023-03-11T02:14:20.819Z,3.10
2023-03-11T02:15:20.807Z,3.20
2023-03-11T02:16:20.830Z,2.70
2023-03-11T02:17:20.819Z,2.70
2023-03-11T02:18:20.797Z,2.80
2023-03-11T02:19:20.777Z,2.90
2023-03-11T02:20:20.770Z,3.20
2023-03-11T02:21:20.778Z,3.40
2023-03-11T02:22:20.805Z,2.60
2023-03-11T02:23:20.740Z,3.00
2023-03-11T02:24:20.732Z,2.90
2023-03-11T02:25:20.726Z,2.70
2023-03-11T02:26:20.731Z,2.90
2023-03-11T02:27:20.708Z,3.10
2023-03-11T02:28:20.720Z,2.60
2023-03-11T02:29:20.694Z,3.00
2023-03-11T02:30:20.687Z,2.80
2023-03-11T02:31:20.719Z,3.00
2023-03-11T02:32:20.752Z,2.70
2023-03-11T02:33:20.662Z,3.40
2023-03-11T02:34:20.643Z,3.20
2023-03-11T02:35:20.640Z,2.90
2023-03-11T02:36:20.645Z,3.00
2023-03-11T02:37:20.624Z,3.00
2023-03-11T02:38:20.627Z,3.30
2023-03-11T02:39:20.607Z,3.20
2023-03-11T02:40:20.599Z,3.20
2023-03-11T02:41:20.598Z,3.20
2023-03-11T02:42:20.581Z,3.10
2023-03-11T02:43:20.569Z,2.50
2023-03-11T02:44:20.565Z,3.20
2023-03-11T02:45:20.552Z,2.70
2023-03-11T02:46:20.609Z,3.30
2023-03-11T02:47:20.532Z,2.80
2023-03-11T02:48:20.522Z,3.10
2023-03-11T02:49:20.514Z,3.30
2023-03-11T02:50:20.510Z,3.30
2023-03-11T02:51:20.505Z,2.80
2023-03-11T02:52:20.493Z,2.90
2023-03-11T02:53:20.484Z,3.20
2023-03-11T02:54:20.467Z,2.90
2023-03-11T02:55:20.471Z,2.80
2023-03-11T02:56:20.467Z,3.20
2023-03-11T02:57:20.452Z,3.10
2023-03-11T02:58:20.449Z,2.90
2023-03-11T02:59:20.431Z,2.90
2023-03-11T03:00:20.461Z,3.00
2023-03-11T03:01:20.516Z,3.10
2023-03-11T03:02:20.405Z,2.90
2023-03-11T03:03:20.405Z,2.90
2023-03-11T03:04:20.444Z,2.80
2023-03-11T03:05:20.373Z,2.90
2023-03-11T03:06:20.373Z,2.70
2023-03-11T03:07:20.354Z,3.00
2023-03-11T03:08:20.347Z,2.90
2023-03-11T03:09:20.341Z,2.70
2023-03-11T03:10:20.331Z,2.80
2023-03-11T03:11:20.330Z,2.80
2023-03-11T03:12:20.305Z,3.00
2023-03-11T03:13:20.302Z,3.20
2023-03-11T03:14:20.293Z,2.70
2023-03-11T03:15:20.279Z,2.90
2023-03-11T03:16:20.311Z,2.90
2023-03-11T03:17:20.305Z,2.80
2023-03-11T03:18:20.261Z,2.80
2023-03-11T03:19:20.489Z,2.50
2023-03-11T03:20:20.240Z,3.00
2023-03-11T03:21:20.255Z,2.70
2023-03-11T03:22:20.229Z,3.00
2023-03-11T03:23:20.212Z,2.70
2023-03-11T03:24:20.202Z,2.70
2023-03-11T03:25:20.190Z,2.70
2023-03-11T03:26:20.198Z,3.10
2023-03-11T03:27:20.170Z,3.00
2023-03-11T03:28:20.175Z,3.20
2023-03-11T03:29:20.163Z,3.00
2023-03-11T03:30:20.148Z,2.60
2023-03-11T03:31:20.166Z,3.10
2023-03-11T03:32:20.194Z,2.60
2023-03-11T03:33:20.120Z,2.80
2023-03-11T03:34:20.109Z,3.00
2023-03-11T03:35:20.109Z,3.10
2023-03-11T03:36:20.091Z,2.90
2023-03-11T03:37:20.098Z,3.10
2023-03-11T03:38:20.082Z,3.10
2023-03-11T03:39:21.067Z,2.90
2023-03-11T03:40:20.058Z,3.30
2023-03-11T03:41:20.047Z,3.30
2023-03-11T03:42:20.050Z,3.20
2023-03-11T03:43:20.033Z,2.90
2023-03-11T03:44:20.027Z,3.00
2023-03-11T03:45:20.025Z,3.00
2023-03-11T03:46:20.072Z,3.20
2023-03-11T03:47:20.008Z,2.90
2023-03-11T03:48:19.980Z,3.40
2023-03-11T03:49:19.973Z,3.20
2023-03-11T03:50:19.973Z,3.10
2023-03-11T03:51:19.960Z,3.30
2023-03-11T03:52:19.956Z,3.40
2023-03-11T03:53:19.941Z,3.10
2023-03-11T03:54:19.926Z,3.10
2023-03-11T03:55:19.915Z,4.00
2023-03-11T03:56:19.909Z,3.40
2023-03-11T03:57:19.914Z,3.20
2023-03-11T03:58:19.900Z,3.30
2023-03-11T03:59:19.883Z,3.30
2023-03-11T04:00:19.880Z,3.40
2023-03-11T04:01:19.868Z,3.10
2023-03-11T04:02:19.910Z,3.50
2023-03-11T04:03:19.932Z,3.40
2023-03-11T04:04:19.842Z,3.60
2023-03-11T04:05:19.847Z,3.70
2023-03-11T04:06:19.837Z,3.50
2023-03-11T04:07:19.835Z,3.30
2023-03-11T04:08:19.809Z,3.40
2023-03-11T04:09:19.803Z,3.60
2023-03-11T04:10:19.795Z,3.50
2023-03-11T04:11:19.785Z,3.20
2023-03-11T04:12:19.791Z,3.30
2023-03-11T04:13:19.769Z,3.70
2023-03-11T04:14:19.756Z,3.50
2023-03-11T04:15:19.765Z,3.20
2023-03-11T04:16:19.815Z,3.60
2023-03-11T04:17:19.747Z,3.60
2023-03-11T04:18:19.729Z,3.20
2023-03-11T04:19:19.716Z,3.30
2023-03-11T04:20:19.706Z,3.30
2023-03-11T04:21:19.696Z,3.20
2023-03-11T04:22:19.696Z,3.80
2023-03-11T04:23:19.689Z,3.40
2023-03-11T04:24:19.668Z,3.30
2023-03-11T04:25:19.660Z,4.00
2023-03-11T04:26:19.650Z,3.60
2023-03-11T04:27:19.652Z,3.30
2023-03-11T04:28:19.634Z,3.40
2023-03-11T04:29:19.627Z,3.80
2023-03-11T04:30:19.611Z,3.40
2023-03-11T04:31:19.724Z,3.50
2023-03-11T04:32:19.623Z,3.60
2023-03-11T04:33:19.595Z,3.40
2023-03-11T04:34:19.579Z,3.60
2023-03-11T04:35:19.566Z,3.50
2023-03-11T04:36:19.559Z,3.70
2023-03-11T04:37:19.561Z,3.70
2023-03-11T04:38:19.545Z,4.10
2023-03-11T04:39:19.545Z,3.40
2023-03-11T04:40:19.519Z,3.90
2023-03-11T04:41:19.508Z,3.80
2023-03-11T04:42:19.519Z,3.70
2023-03-11T04:43:19.493Z,3.70
2023-03-11T04:44:19.487Z,3.70
2023-03-11T04:45:19.472Z,4.00
2023-03-11T04:46:19.534Z,3.30
2023-03-11T04:47:19.471Z,4.00
2023-03-11T04:48:51.361Z,3.70
2023-03-11T04:49:19.436Z,3.50
2023-03-11T04:50:19.432Z,3.40
2023-03-11T04:51:19.421Z,3.70
2023-03-11T04:52:19.436Z,3.90
2023-03-11T04:53:19.402Z,3.70
2023-03-11T04:54:19.392Z,3.50
2023-03-11T04:55:19.386Z,3.60
2023-03-11T04:56:19.377Z,3.90
2023-03-11T04:57:19.376Z,3.50
2023-03-11T04:58:19.359Z,3.70
2023-03-11T04:59:19.352Z,3.50
2023-03-11T05:00:19.345Z,3.70
2023-03-11T05:01:19.348Z,3.90
2023-03-11T05:02:19.335Z,3.50
2023-03-11T05:03:19.391Z,3.90
2023-03-11T05:04:19.336Z,3.80
2023-03-11T05:05:19.292Z,3.70
2023-03-11T05:06:19.285Z,3.60
2023-03-11T05:07:19.288Z,3.70
2023-03-11T05:08:19.268Z,4.20
2023-03-11T05:09:19.262Z,3.40
2023-03-11T05:10:19.255Z,4.00
2023-03-11T05:11:19.243Z,3.50
2023-03-11T05:12:19.249Z,3.90
2023-03-11T05:13:19.226Z,3.60
2023-03-11T05:14:19.219Z,3.50
2023-03-11T05:15:19.206Z,3.40
2023-03-11T05:16:19.253Z,4.10
2023-03-11T05:17:19.202Z,4.00
2023-03-11T05:18:19.183Z,3.80
2023-03-11T05:19:19.168Z,3.60
2023-03-11T05:20:19.166Z,3.50
2023-03-11T05:21:19.157Z,3.90
2023-03-11T05:22:19.159Z,3.70
2023-03-11T05:23:19.139Z,3.70
2023-03-11T05:24:19.129Z,3.80
2023-03-11T05:25:19.113Z,3.40
2023-03-11T05:26:19.107Z,3.50
2023-03-11T05:27:19.107Z,3.60
2023-03-11T05:28:19.094Z,3.30
2023-03-11T05:29:19.078Z,3.40
2023-03-11T05:30:19.073Z,3.40
2023-03-11T05:31:19.126Z,3.40
2023-03-11T05:32:19.090Z,3.80
2023-03-11T05:33:19.044Z,3.50
2023-03-11T05:34:19.032Z,3.60
2023-03-11T05:35:19.026Z,3.20
2023-03-11T05:36:19.018Z,3.20
2023-03-11T05:37:19.018Z,3.60
2023-03-11T05:38:19.001Z,3.50
2023-03-11T05:39:18.993Z,3.50
2023-03-11T05:40:18.976Z,3.30
2023-03-11T05:41:18.972Z,3.20
2023-03-11T05:42:21.261Z,3.30
2023-03-11T05:43:18.968Z,3.20
2023-03-11T05:44:18.950Z,3.30
2023-03-11T05:45:18.946Z,2.90
2023-03-11T05:46:18.943Z,3.20
2023-03-11T05:47:18.938Z,3.00
2023-03-11T05:48:18.917Z,3.30
2023-03-11T05:49:18.902Z,3.60
2023-03-11T05:50:18.903Z,3.30
2023-03-11T05:51:18.893Z,3.40
2023-03-11T05:52:18.898Z,3.30
2023-03-11T05:53:18.885Z,3.10
2023-03-11T05:54:18.870Z,3.10
2023-03-11T05:55:18.857Z,3.40
2023-03-11T05:56:18.839Z,3.50
2023-03-11T05:57:18.845Z,2.90
2023-03-11T05:58:18.876Z,3.00
2023-03-11T05:59:18.844Z,3.00
2023-03-11T06:00:18.809Z,3.40
2023-03-11T06:01:18.800Z,3.50
2023-03-11T06:02:18.802Z,3.50
2023-03-11T06:03:18.781Z,3.00
2023-03-11T06:04:18.894Z,3.40
2023-03-11T06:05:18.863Z,3.50
2023-03-11T06:06:18.754Z,3.20
2023-03-11T06:07:18.754Z,3.10
2023-03-11T06:08:18.752Z,3.20
2023-03-11T06:09:18.728Z,3.20
2023-03-11T06:10:18.723Z,3.00
2023-03-11T06:11:18.710Z,3.40
2023-03-11T06:12:18.709Z,3.30
2023-03-11T06:13:18.698Z,2.90
2023-03-11T06:14:18.690Z,3.10
2023-03-11T06:15:18.668Z,2.70
2023-03-11T06:16:18.696Z,3.30
2023-03-11T06:17:18.661Z,3.40
2023-03-11T06:18:18.639Z,2.80
2023-03-11T06:19:18.642Z,3.10
2023-03-11T06:20:18.627Z,3.10
2023-03-11T06:21:18.622Z,3.10
2023-03-11T06:22:18.636Z,2.90
2023-03-11T06:23:18.596Z,3.10
2023-03-11T06:24:18.591Z,4.40
2023-03-11T06:25:18.577Z,3.30
2023-03-11T06:26:18.567Z,3.20
2023-03-11T06:27:18.559Z,2.90
2023-03-11T06:28:18.572Z,3.40
2023-03-11T06:29:18.546Z,2.70
2023-03-11T06:30:18.538Z,3.30
2023-03-11T06:31:18.554Z,3.20
2023-03-11T06:32:18.596Z,3.40
2023-03-11T06:33:18.508Z,3.40
2023-03-11T06:34:18.498Z,3.00
2023-03-11T06:35:18.488Z,3.10
2023-03-11T06:36:18.478Z,3.10
2023-03-11T06:37:18.472Z,2.90
2023-03-11T06:38:18.472Z,3.20
2023-03-11T06:39:18.457Z,3.00
2023-03-11T06:40:18.440Z,3.20
2023-03-11T06:41:19.455Z,3.20
2023-03-11T06:42:18.452Z,3.40
2023-03-11T06:43:18.424Z,3.50
2023-03-11T06:44:18.415Z,3.10
2023-03-11T06:45:20.520Z,3.00
2023-03-11T06:46:19.444Z,3.50
2023-03-11T06:47:18.381Z,3.40
2023-03-11T06:48:19.391Z,3.00
2023-03-11T06:49:18.371Z,3.40
2023-03-11T06:50:18.366Z,3.50
2023-03-11T06:51:18.359Z,2.80
2023-03-11T06:52:18.342Z,3.50
2023-03-11T06:53:18.355Z,3.40
2023-03-11T06:54:18.322Z,3.20
2023-03-11T06:55:18.318Z,3.00
2023-03-11T06:56:18.308Z,3.10
2023-03-11T06:57:18.300Z,3.50
2023-03-11T06:58:18.318Z,3.10
2023-03-11T06:59:18.299Z,3.00
2023-03-11T07:00:18.273Z,3.50
2023-03-11T07:01:18.377Z,2.90
2023-03-11T07:02:18.254Z,3.40
2023-03-11T07:03:18.255Z,3.10
2023-03-11T07:04:18.304Z,2.90
2023-03-11T07:05:18.232Z,3.10
2023-03-11T07:06:18.214Z,2.90
2023-03-11T07:07:18.209Z,3.20
2023-03-11T07:08:18.210Z,3.20
2023-03-11T07:09:18.208Z,3.00
2023-03-11T07:10:18.184Z,3.10
2023-03-11T07:11:18.184Z,3.40
2023-03-11T07:12:18.167Z,3.10
2023-03-11T07:13:18.173Z,3.20
2023-03-11T07:14:18.687Z,3.20
2023-03-11T07:15:18.148Z,3.20
2023-03-11T07:16:18.275Z,3.40
2023-03-11T07:17:18.125Z,3.20
2023-03-11T07:18:18.122Z,2.80
2023-03-11T07:19:18.124Z,3.10
2023-03-11T07:20:18.108Z,3.10
2023-03-11T07:21:18.760Z,3.40
2023-03-11T07:22:18.084Z,2.80
2023-03-11T07:23:18.268Z,3.60
2023-03-11T07:24:18.069Z,3.20
2023-03-11T07:25:18.050Z,3.50
2023-03-11T07:26:18.067Z,3.20
2023-03-11T07:27:18.032Z,3.40
2023-03-11T07:28:18.036Z,3.20
2023-03-11T07:29:18.555Z,3.00
2023-03-11T07:30:18.285Z,3.00
2023-03-11T07:31:18.587Z,3.30
2023-03-11T07:32:18.158Z,3.40
2023-03-11T07:33:18.494Z,3.30
2023-03-11T07:34:17.987Z,3.40
2023-03-11T07:35:17.965Z,3.50
2023-03-11T07:36:18.527Z,3.10
2023-03-11T07:37:17.938Z,3.10
2023-03-11T07:38:18.082Z,3.30
2023-03-11T07:39:17.940Z,3.50
2023-03-11T07:40:17.918Z,3.20
2023-03-11T07:41:18.416Z,2.40
2023-03-11T07:42:17.903Z,3.30
2023-03-11T07:43:17.899Z,2.80
2023-03-11T07:44:18.276Z,3.10
2023-03-11T07:45:17.873Z,3.00
2023-03-11T07:46:17.896Z,2.90
2023-03-11T07:47:18.264Z,2.90
2023-03-11T07:48:18.309Z,2.90
2023-03-11T07:49:17.840Z,2.60
2023-03-11T07:50:17.834Z,2.70
2023-03-11T07:51:17.832Z,2.50
2023-03-11T07:52:17.813Z,2.90
2023-03-11T07:53:17.810Z,2.70
2023-03-11T07:54:17.804Z,2.80
2023-03-11T07:55:17.787Z,2.60
2023-03-11T07:56:17.780Z,3.10
2023-03-11T07:57:17.767Z,2.80
2023-03-11T07:58:17.770Z,2.80
2023-03-11T07:59:17.748Z,2.80
2023-03-11T08:00:17.745Z,2.80
2023-03-11T08:01:17.732Z,2.60
2023-03-11T08:02:17.751Z,2.60
2023-03-11T08:03:17.770Z,2.90
2023-03-11T08:04:17.707Z,2.60
2023-03-11T08:05:17.699Z,2.40
2023-03-11T08:06:17.704Z,2.90
2023-03-11T08:07:17.686Z,2.70
2023-03-11T08:08:17.682Z,2.60
2023-03-11T08:09:17.674Z,2.70
2023-03-11T08:10:17.658Z,2.30
2023-03-11T08:11:17.659Z,2.70
2023-03-11T08:12:17.646Z,2.70
2023-03-11T08:13:17.643Z,2.80
2023-03-11T08:14:17.635Z,2.80
2023-03-11T08:15:17.610Z,3.20
2023-03-11T08:16:17.613Z,2.60
2023-03-11T08:17:17.598Z,2.80
2023-03-11T08:18:17.601Z,2.80
2023-03-11T08:19:17.588Z,2.70
2023-03-11T08:20:17.589Z,2.80
2023-03-11T08:21:17.579Z,2.50
2023-03-11T08:22:17.563Z,2.80
2023-03-11T08:23:17.576Z,2.70
2023-03-11T08:24:17.546Z,2.50
2023-03-11T08:25:17.532Z,2.90
2023-03-11T08:26:17.533Z,2.60
2023-03-11T08:27:17.518Z,2.70
2023-03-11T08:28:17.516Z,2.70
2023-03-11T08:29:17.498Z,2.70
2023-03-11T08:30:17.488Z,2.30
2023-03-11T08:31:17.491Z,2.70
2023-03-11T08:32:17.573Z,2.40
2023-03-11T08:33:17.475Z,2.40
2023-03-11T08:34:17.463Z,2.40
2023-03-11T08:35:17.452Z,2.40
2023-03-11T08:36:17.454Z,2.70
2023-03-11T08:37:17.469Z,2.30
2023-03-11T08:38:17.429Z,2.00
2023-03-11T08:39:17.408Z,2.40
2023-03-11T08:40:17.402Z,2.10
2023-03-11T08:41:17.404Z,2.20
2023-03-11T08:42:17.388Z,2.50
2023-03-11T08:43:17.384Z,2.30
2023-03-11T08:44:17.376Z,2.30
2023-03-11T08:45:17.359Z,2.30
2023-03-11T08:46:17.376Z,2.30
2023-03-11T08:47:17.347Z,2.40
2023-03-11T08:48:17.345Z,2.40
2023-03-11T08:49:17.330Z,2.50
2023-03-11T08:50:17.328Z,2.50
2023-03-11T08:51:17.309Z,2.60
2023-03-11T08:52:17.303Z,2.50
2023-03-11T08:53:17.302Z,2.20
2023-03-11T08:54:17.278Z,2.10
2023-03-11T08:55:17.284Z,2.20
2023-03-11T08:56:17.266Z,2.30
2023-03-11T08:57:17.261Z,2.00
2023-03-11T08:58:17.260Z,2.20
2023-03-11T08:59:17.262Z,2.00
2023-03-11T09:00:17.233Z,2.40
2023-03-11T09:01:17.230Z,2.30
2023-03-11T09:02:17.224Z,2.30
2023-03-11T09:03:17.225Z,2.50
2023-03-11T09:04:17.198Z,2.30
2023-03-11T09:05:17.186Z,2.50
2023-03-11T09:06:17.240Z,2.50
2023-03-11T09:07:17.171Z,2.10
2023-03-11T09:08:17.179Z,2.10
2023-03-11T09:09:17.156Z,2.00
2023-03-11T09:10:17.155Z,1.90
2023-03-11T09:11:17.157Z,2.10
2023-03-11T09:12:17.134Z,2.30
2023-03-11T09:13:17.135Z,2.10
2023-03-11T09:14:17.130Z,2.10
2023-03-11T09:15:17.116Z,2.50
2023-03-11T09:16:17.181Z,2.40
2023-03-11T09:17:17.094Z,2.20
2023-03-11T09:18:17.094Z,2.10
2023-03-11T09:19:17.075Z,1.90
2023-03-11T09:20:17.069Z,2.00
2023-03-11T09:21:17.058Z,2.50
2023-03-11T09:22:17.062Z,1.90
2023-03-11T09:23:17.056Z,2.00
2023-03-11T09:24:17.030Z,1.70
2023-03-11T09:25:17.039Z,2.20
2023-03-11T09:26:17.020Z,2.10
2023-03-11T09:27:17.009Z,2.00
2023-03-11T09:28:17.022Z,2.30
2023-03-11T09:29:16.993Z,1.90
2023-03-11T09:30:16.981Z,2.00
2023-03-11T09:31:17.093Z,2.00
2023-03-11T09:32:16.989Z,2.30
2023-03-11T09:33:16.969Z,1.80
2023-03-11T09:34:16.960Z,1.80
2023-03-11T09:35:16.940Z,2.10
2023-03-11T09:36:16.945Z,2.00
2023-03-11T09:37:16.928Z,1.70
2023-03-11T09:38:16.924Z,2.10
2023-03-11T09:39:16.916Z,1.80
2023-03-11T09:40:16.904Z,2.00
2023-03-11T09:41:16.897Z,2.00
2023-03-11T09:42:16.887Z,1.90
2023-03-11T09:43:16.885Z,2.10
2023-03-11T09:44:16.866Z,2.10
2023-03-11T09:45:16.856Z,2.00
2023-03-11T09:46:16.916Z,2.30
2023-03-11T09:47:16.837Z,2.00
2023-03-11T09:48:16.842Z,1.80
2023-03-11T09:49:16.829Z,1.90
2023-03-11T09:50:16.824Z,1.80
2023-03-11T09:51:16.810Z,1.80
2023-03-11T09:52:16.805Z,2.10
2023-03-11T09:53:16.805Z,2.00
2023-03-11T09:54:16.781Z,2.00
2023-03-11T09:55:16.771Z,1.70
2023-03-11T09:56:16.764Z,1.90
2023-03-11T09:57:16.753Z,1.90
2023-03-11T09:58:16.749Z,1.80
2023-03-11T09:59:16.743Z,2.10
2023-03-11T10:00:16.725Z,1.80
2023-03-11T10:01:16.726Z,2.20
2023-03-11T10:02:16.794Z,1.70
2023-03-11T10:03:16.837Z,1.90
2023-03-11T10:04:16.703Z,1.70
2023-03-11T10:05:16.688Z,1.90
2023-03-11T10:06:16.670Z,1.60
2023-03-11T10:07:16.659Z,2.00
2023-03-11T10:08:16.652Z,1.80
2023-03-11T10:09:16.659Z,2.00
2023-03-11T10:10:16.642Z,1.60
2023-03-11T10:11:16.631Z,2.10
2023-03-11T10:12:16.623Z,1.90
2023-03-11T10:13:16.609Z,1.80
2023-03-11T10:14:16.614Z,1.90
2023-03-11T10:15:16.638Z,1.70
2023-03-11T10:16:16.652Z,1.90
2023-03-11T10:17:16.581Z,2.40
2023-03-11T10:18:16.572Z,2.20
2023-03-11T10:19:16.573Z,1.90
2023-03-11T10:20:16.550Z,1.90
2023-03-11T10:21:16.542Z,1.90
2023-03-11T10:22:16.540Z,1.90
2023-03-11T10:23:16.534Z,2.30
2023-03-11T10:24:16.539Z,1.90
2023-03-11T10:25:16.523Z,2.10
2023-03-11T10:26:16.520Z,1.80
2023-03-11T10:27:16.498Z,1.90
2023-03-11T10:28:16.484Z,3.00
2023-03-11T10:29:16.488Z,1.80
2023-03-11T10:30:16.477Z,2.20
2023-03-11T10:31:16.463Z,1.90
2023-03-11T10:32:17.499Z,1.70
2023-03-11T10:33:16.458Z,2.20
2023-03-11T10:34:16.445Z,1.80
2023-03-11T10:35:16.436Z,1.90
2023-03-11T10:36:16.418Z,2.30
2023-03-11T10:37:16.404Z,2.00
2023-03-11T10:38:16.397Z,1.80
2023-03-11T10:39:16.404Z,1.70
2023-03-11T10:40:16.390Z,2.20
2023-03-11T10:41:16.374Z,1.80
2023-03-11T10:42:16.365Z,1.70
2023-03-11T10:43:16.352Z,1.90
2023-03-11T10:44:16.353Z,1.80
2023-03-11T10:45:16.338Z,1.90
2023-03-11T10:46:16.378Z,1.90
2023-03-11T10:47:16.322Z,2.10
2023-03-11T10:48:48.225Z,1.80
2023-03-11T10:49:16.317Z,1.70
2023-03-11T10:50:16.303Z,2.00
2023-03-11T10:51:16.305Z,1.90
2023-03-11T10:52:16.303Z,1.90
2023-03-11T10:53:16.287Z,1.70
2023-03-11T10:54:16.278Z,1.70
2023-03-11T10:55:16.260Z,1.80
2023-03-11T10:56:16.248Z,1.70
2023-03-11T10:57:16.232Z,1.90
2023-03-11T10:58:16.230Z,1.70
2023-03-11T10:59:16.227Z,2.10
2023-03-11T11:00:16.210Z,1.80
2023-03-11T11:01:16.250Z,1.80
2023-03-11T11:02:16.191Z,2.00
2023-03-11T11:03:16.187Z,1.90
2023-03-11T11:04:16.206Z,1.80
2023-03-11T11:05:16.169Z,2.00
2023-03-11T11:06:16.155Z,1.90
2023-03-11T11:07:16.156Z,2.00
2023-03-11T11:08:16.144Z,1.80
2023-03-11T11:09:16.144Z,1.90
2023-03-11T11:10:16.127Z,1.70
2023-03-11T11:11:16.118Z,1.80
2023-03-11T11:12:16.115Z,2.20
2023-03-11T11:13:16.104Z,1.80
2023-03-11T11:14:16.106Z,2.10
2023-03-11T11:15:16.088Z,2.10
2023-03-11T11:16:16.115Z,1.70
2023-03-11T11:17:16.074Z,1.70
2023-03-11T11:18:16.060Z,2.40
2023-03-11T11:19:16.221Z,2.00
2023-03-11T11:20:16.048Z,2.00
2023-03-11T11:21:16.039Z,1.60
2023-03-11T11:22:16.027Z,1.90
2023-03-11T11:23:16.015Z,1.80
2023-03-11T11:24:16.016Z,1.80
2023-03-11T11:25:16.050Z,2.00
2023-03-11T11:26:15.994Z,2.00
2023-03-11T11:27:15.988Z,1.90
2023-03-11T11:28:15.972Z,1.80
2023-03-11T11:29:15.980Z,2.20
2023-03-11T11:30:15.955Z,2.10
2023-03-11T11:31:16.020Z,2.00
2023-03-11T11:32:15.991Z,2.00
2023-03-11T11:33:15.934Z,1.80
2023-03-11T11:34:15.936Z,2.30
2023-03-11T11:35:15.909Z,2.00
2023-03-11T11:36:15.902Z,2.00
2023-03-11T11:37:15.895Z,1.70
2023-03-11T11:38:15.879Z,1.90
2023-03-11T11:39:15.896Z,2.00
2023-03-11T11:40:15.939Z,1.70
2023-03-11T11:41:15.858Z,1.90
2023-03-11T11:42:15.847Z,2.00
2023-03-11T11:43:15.843Z,1.80
2023-03-11T11:44:15.842Z,1.80
2023-03-11T11:45:15.818Z,2.20
2023-03-11T11:46:15.837Z,1.90
2023-03-11T11:47:15.824Z,2.00
2023-03-11T11:48:15.792Z,1.80
2023-03-11T11:49:15.804Z,1.90
2023-03-11T11:50:15.774Z,2.10
2023-03-11T11:51:15.765Z,2.10
2023-03-11T11:52:15.756Z,2.50
2023-03-11T11:53:15.750Z,2.10
2023-03-11T11:54:15.755Z,1.90
2023-03-11T11:55:15.737Z,2.00
2023-03-11T11:56:15.726Z,1.90
2023-03-11T11:57:15.719Z,2.20
2023-03-11T11:58:15.707Z,1.90
2023-03-11T11:59:15.707Z,1.90
2023-03-11T12:00:15.717Z,1.80
2023-03-11T12:01:15.681Z,1.80
2023-03-11T12:02:15.672Z,1.70
2023-03-11T12:03:15.683Z,1.60
2023-03-11T12:04:15.667Z,1.70
2023-03-11T12:05:15.660Z,2.30
2023-03-11T12:06:15.634Z,1.90
2023-03-11T12:07:15.629Z,1.80
2023-03-11T12:08:15.617Z,1.70
2023-03-11T12:09:15.626Z,1.80
2023-03-11T12:10:22.890Z,1.80
2023-03-11T12:11:17.592Z,1.90
2023-03-11T12:12:15.583Z,1.60
2023-03-11T12:13:15.646Z,2.00
2023-03-11T12:14:15.579Z,1.70
2023-03-11T12:15:15.567Z,1.60
2023-03-11T12:16:15.681Z,1.90
2023-03-11T12:17:15.540Z,1.80
2023-03-11T12:18:15.532Z,1.80
2023-03-11T12:19:15.532Z,1.80
2023-03-11T12:20:15.564Z,2.30
2023-03-11T12:21:15.506Z,2.00
2023-03-11T12:22:15.504Z,2.10
2023-03-11T12:23:15.488Z,2.30
2023-03-11T12:24:15.495Z,1.80
2023-03-11T12:25:15.474Z,2.00
2023-03-11T12:26:15.462Z,2.00
2023-03-11T12:27:15.458Z,2.10
2023-03-11T12:28:15.462Z,2.20
2023-03-11T12:29:16.191Z,1.90
2023-03-11T12:30:16.444Z,1.90
2023-03-11T12:31:15.453Z,2.10
2023-03-11T12:32:15.471Z,1.90
2023-03-11T12:33:15.416Z,2.00
2023-03-11T12:34:15.417Z,1.90
2023-03-11T12:35:15.400Z,2.30
2023-03-11T12:36:15.427Z,1.80
2023-03-11T12:37:15.380Z,2.10
2023-03-11T12:38:15.368Z,2.10
2023-03-11T12:39:15.365Z,2.10
2023-03-11T12:40:15.362Z,2.20
2023-03-11T12:41:15.336Z,2.30
2023-03-11T12:42:15.331Z,1.90
2023-03-11T12:43:15.318Z,2.10
2023-03-11T12:44:15.324Z,2.30
2023-03-11T12:45:15.305Z,1.80
2023-03-11T12:46:15.322Z,2.10
2023-03-11T12:47:16.285Z,2.20
2023-03-11T12:48:15.277Z,2.00
2023-03-11T12:49:15.298Z,2.50
2023-03-11T12:50:15.262Z,2.10
2023-03-11T12:51:15.248Z,2.10
2023-03-11T12:52:15.244Z,2.00
2023-03-11T12:53:15.232Z,2.10
2023-03-11T12:54:15.247Z,1.80
2023-03-11T12:55:15.245Z,1.70
2023-03-11T12:56:15.212Z,2.00
2023-03-11T12:57:15.204Z,1.80
2023-03-11T12:58:15.190Z,1.70
2023-03-11T12:59:15.221Z,1.80
2023-03-11T13:00:15.172Z,1.90
2023-03-11T13:01:15.193Z,1.70
2023-03-11T13:02:15.164Z,1.90
2023-03-11T13:03:15.245Z,1.70
2023-03-11T13:04:15.138Z,2.00
2023-03-11T13:05:15.140Z,1.70
2023-03-11T13:06:15.119Z,1.80
2023-03-11T13:07:15.111Z,1.90
2023-03-11T13:08:15.111Z,1.60
2023-03-11T13:09:15.106Z,2.10
2023-03-11T13:10:15.124Z,1.90
2023-03-11T13:11:15.076Z,1.90
2023-03-11T13:12:15.071Z,2.00
2023-03-11T13:13:15.061Z,2.20
2023-03-11T13:14:15.048Z,2.20
2023-03-11T13:15:15.052Z,1.90
2023-03-11T13:16:15.103Z,2.10
2023-03-11T13:17:15.022Z,2.00
2023-03-11T13:18:15.012Z,1.90